createdAt,value
2022-11-24T00:04:49.483Z,8.10
2022-11-24T00:11:51.448Z,7.35
2022-11-24T00:18:54.099Z,7.03
2022-11-24T00:25:56.078Z,8.07
2022-11-24T00:32:58.002Z,7.95
2022-11-24T00:39:59.998Z,9.43
2022-11-24T00:47:02.014Z,8.13
2022-11-24T00:54:04.131Z,7.20
2022-11-24T01:01:11.075Z,9.40
2022-11-24T01:08:13.281Z,9.65
2022-11-24T01:15:15.259Z,7.95
2022-11-24T01:22:17.381Z,7.97
2022-11-24T01:29:19.283Z,9.13
2022-11-24T01:36:21.185Z,7.72
2022-11-24T01:43:23.133Z,7.57
2022-11-24T01:50:25.417Z,7.63
2022-11-24T01:57:32.774Z,7.93
2022-11-24T02:04:35.267Z,7.95
2022-11-24T02:11:39.299Z,7.15
2022-11-24T02:18:42.417Z,6.55
2022-11-24T02:25:47.381Z,7.47
2022-11-24T02:32:49.602Z,6.30
2022-11-24T02:39:51.594Z,7.15
2022-11-24T02:47:07.058Z,7.13
2022-11-24T02:54:09.066Z,7.38
2022-11-24T03:01:10.868Z,6.70
2022-11-24T03:08:13.319Z,5.22
2022-11-24T03:15:15.115Z,5.88
2022-11-24T03:22:17.030Z,5.75
2022-11-24T03:29:18.988Z,7.38
2022-11-24T03:36:21.805Z,6.72
2022-11-24T03:43:23.661Z,7.57
2022-11-24T03:50:25.585Z,7.88
2022-11-24T03:57:27.425Z,8.75
2022-11-24T04:04:29.356Z,8.65
2022-11-24T04:11:49.743Z,9.07
2022-11-24T04:18:54.515Z,7.55
2022-11-24T04:25:57.537Z,9.50
2022-11-24T04:32:59.518Z,8.88
2022-11-24T04:40:01.346Z,9.00
2022-11-24T04:47:03.329Z,9.27
2022-11-24T04:54:05.605Z,8.40
2022-11-24T05:01:08.695Z,8.13
2022-11-24T05:08:10.411Z,9.00
2022-11-24T05:15:12.390Z,8.32
2022-11-24T05:22:20.772Z,7.88
2022-11-24T05:29:22.768Z,8.35
2022-11-24T05:36:43.381Z,9.35
2022-11-24T05:43:45.370Z,10.30
2022-11-24T05:50:53.108Z,9.35
2022-11-24T05:58:02.587Z,13.23
2022-11-24T06:12:10.456Z,13.70
2022-11-24T06:19:12.553Z,10.63
2022-11-24T06:26:14.442Z,10.57
2022-11-24T06:33:16.244Z,10.93
2022-11-24T06:40:18.273Z,10.68
2022-11-24T06:47:20.101Z,12.05
2022-11-24T06:54:22.511Z,9.27
2022-11-24T07:01:28.203Z,9.68
2022-11-24T07:08:30.021Z,11.10
2022-11-24T07:15:35.559Z,11.27
2022-11-24T07:22:37.391Z,10.80
2022-11-24T07:29:39.302Z,12.15
2022-11-24T07:36:41.355Z,11.27
2022-11-24T07:43:43.104Z,12.27
2022-11-24T07:50:45.001Z,12.85
2022-11-24T07:57:46.720Z,13.00
2022-11-24T08:04:48.501Z,12.18
2022-11-24T08:11:50.401Z,12.07
2022-11-24T08:18:53.086Z,8.82
2022-11-24T08:25:57.141Z,9.60
2022-11-24T08:32:59.515Z,9.32
2022-11-24T08:40:01.280Z,7.93
2022-11-24T08:47:03.328Z,7.95
2022-11-24T08:54:05.229Z,8.30
2022-11-24T09:01:08.576Z,9.15
2022-11-24T09:08:10.580Z,8.50
2022-11-24T09:15:13.370Z,8.60
2022-11-24T09:22:15.255Z,8.73
2022-11-24T09:29:17.442Z,7.28
2022-11-24T09:36:19.462Z,7.82
2022-11-24T09:43:21.720Z,8.23
2022-11-24T09:50:31.271Z,8.32
2022-11-24T09:57:37.743Z,8.82
2022-11-24T10:04:41.908Z,8.15
2022-11-24T10:11:43.979Z,8.27
2022-11-24T10:18:52.154Z,7.85
2022-11-24T10:25:54.020Z,7.20
2022-11-24T10:33:01.864Z,8.45
2022-11-24T10:40:33.494Z,8.07
2022-11-24T10:47:37.198Z,8.68
2022-11-24T10:54:53.958Z,9.55
2022-11-24T11:01:55.926Z,8.82
2022-11-24T11:09:07.228Z,9.18
2022-11-24T11:16:19.777Z,8.85
2022-11-24T11:23:37.357Z,7.75
2022-11-24T11:38:03.077Z,9.70
2022-11-24T11:45:10.710Z,10.50
2022-11-24T11:52:23.326Z,10.15
2022-11-24T11:59:34.271Z,10.48
2022-11-24T12:06:50.677Z,10.65
2022-11-24T12:14:07.505Z,10.45
2022-11-24T12:21:24.827Z,8.98
2022-11-24T12:28:35.073Z,10.20
2022-11-24T12:35:49.539Z,10.17
2022-11-24T12:43:00.627Z,11.60
2022-11-24T12:50:22.732Z,15.02
2022-11-24T12:57:30.399Z,10.85
2022-11-24T13:04:36.611Z,10.80
2022-11-24T13:11:46.237Z,11.30
2022-11-24T13:26:11.014Z,10.85
2022-11-24T13:33:16.465Z,9.45
2022-11-24T13:40:21.121Z,11.68
2022-11-24T13:47:28.717Z,9.93
2022-11-24T13:54:30.980Z,12.93
2022-11-24T14:01:36.110Z,10.70
2022-11-24T14:08:38.610Z,12.07
2022-11-24T14:15:40.424Z,11.02
2022-11-24T14:22:43.460Z,9.88
2022-11-24T14:30:05.954Z,11.60
2022-11-24T14:37:11.253Z,10.25
2022-11-24T14:44:16.334Z,9.65
2022-11-24T14:51:25.190Z,9.40
2022-11-24T14:58:31.078Z,10.93
2022-11-24T15:05:51.756Z,9.70
2022-11-24T15:12:58.270Z,10.35
2022-11-24T15:20:09.733Z,8.77
2022-11-24T15:27:11.530Z,8.80
2022-11-24T15:34:14.186Z,8.75
2022-11-24T15:41:28.598Z,10.30
2022-11-24T15:48:30.576Z,11.60
2022-11-24T15:55:32.636Z,10.02
2022-11-24T16:02:34.699Z,10.02
2022-11-24T16:09:36.513Z,10.80
2022-11-24T16:16:44.167Z,9.63
2022-11-24T16:23:50.629Z,19.27
2022-11-24T16:30:52.803Z,32.13
2022-11-24T16:37:55.825Z,10.40
2022-11-24T16:44:58.613Z,11.13
2022-11-24T16:52:00.605Z,11.98
2022-11-24T16:59:02.415Z,11.70
2022-11-24T17:06:05.344Z,10.70
2022-11-24T17:13:12.675Z,11.40
2022-11-24T17:20:16.664Z,12.93
2022-11-24T17:27:18.916Z,12.63
2022-11-24T17:34:28.143Z,12.63
2022-11-24T17:48:47.411Z,10.52
2022-11-24T17:55:49.688Z,14.05
2022-11-24T18:02:54.875Z,14.70
2022-11-24T18:09:57.151Z,14.88
2022-11-24T18:17:00.337Z,12.27
2022-11-24T18:24:03.125Z,12.95
2022-11-24T18:31:09.316Z,12.05
2022-11-24T18:38:11.793Z,14.43
2022-11-24T18:45:14.431Z,12.85
2022-11-24T18:52:16.490Z,12.02
2022-11-24T18:59:19.004Z,12.57
2022-11-24T19:06:23.129Z,12.00
2022-11-24T19:13:25.510Z,11.75
2022-11-24T19:20:28.087Z,12.43
2022-11-24T19:27:30.012Z,14.20
2022-11-24T19:34:32.687Z,13.27
2022-11-24T19:41:37.640Z,14.60
2022-11-24T19:48:42.055Z,13.98
2022-11-24T19:55:44.181Z,12.48
2022-11-24T20:02:47.863Z,13.20
2022-11-24T20:09:51.212Z,13.55
2022-11-24T20:16:54.501Z,14.85
2022-11-24T20:24:01.027Z,13.65
2022-11-24T20:31:13.249Z,13.18
2022-11-24T20:45:41.908Z,14.18
2022-11-24T20:52:49.246Z,15.77
2022-11-24T20:59:53.593Z,13.27
2022-11-24T21:06:56.064Z,14.85
2022-11-24T21:13:58.182Z,13.68
2022-11-24T21:21:00.549Z,16.58
2022-11-24T21:28:02.831Z,12.77
2022-11-24T21:35:05.996Z,11.70
2022-11-24T21:42:08.153Z,13.00
2022-11-24T21:49:13.575Z,11.75
2022-11-24T21:56:19.449Z,13.23
2022-11-24T22:03:22.518Z,13.02
2022-11-24T22:10:24.871Z,14.02
2022-11-24T22:17:30.036Z,11.80
2022-11-24T22:24:31.994Z,12.30
2022-11-24T22:31:34.109Z,12.10
2022-11-24T22:38:36.163Z,13.32
2022-11-24T22:45:37.978Z,19.85
2022-11-24T22:52:41.146Z,13.27
2022-11-24T22:59:42.927Z,14.02
2022-11-24T23:06:44.847Z,13.45
2022-11-24T23:13:47.125Z,12.40
2022-11-24T23:20:49.114Z,13.18
2022-11-24T23:27:50.972Z,13.80
2022-11-24T23:34:52.823Z,12.98
2022-11-24T23:41:58.562Z,14.93
2022-11-24T23:49:00.405Z,14.73
2022-11-24T23:56:02.510Z,17.83
